Terminal Aerodrome Forecast
Issued by NWS

Home | Current Version | Previous Version | Text Only | Print | Product List | Glossary On
Versions: 1 2 3 4 5 6 7 8 9 10 11 12 13
934
FTUS42 KGSP 221741
TAFAND
TAF
KAND 221741Z 2218/2318 10008KT P6SM VCSH OVC060
     FM222100 08009KT 5SM -RA OVC035
     FM230000 07010KT P6SM OVC021
     FM230200 08012G19KT P6SM OVC016
     FM230300 09014G21KT 3SM -RA BR OVC016
     FM230900 09018G26KT 5SM -RA OVC080=

USA.gov is the U.S. government's official web portal to all federal, state and local government web resources and services.